EBHN weather

Hoevenen Airfield
Hoevenen, Antwerp, Belgium

Public forecast

Using degrees Celsius for public forecast. Weather courtesy of forecast.io.

METAR (pilot weather report)

Closest report is Antwerp International Airport (Deurne), 7.5 nm (13.9 km) SSE. Retrieved 2019/04/21 08:20 UTC (10 minutes ago):

EBAW 210820Z 08004KT 040V100 CAVOK 16/05 Q1022 NOSIG

TAF (pilot weather forecast)

Forecast is more than 12 hours old.

Closest forecast is Antwerp International Airport (Deurne), 7.5 nm (13.9 km) SSE. Retrieved 2018/10/03 03:27 UTC (7 months ago):

TAF TAF EBAW 030220Z 0303/0315 28006KT 9999 FEW026